createdAt,value
2024-01-19T00:03:11.546Z,98816.72
2024-01-19T00:07:35.357Z,98833.19
2024-01-19T00:11:58.717Z,98846.91
2024-01-19T00:16:24.209Z,98847.81
2024-01-19T00:20:47.578Z,98863.38
2024-01-19T00:25:11.787Z,98871.16
2024-01-19T00:29:35.120Z,98874.53
2024-01-19T00:34:00.913Z,98882.31
2024-01-19T00:38:24.272Z,98890.88
2024-01-19T00:42:48.357Z,98895.22
2024-01-19T00:47:12.160Z,98895.94
2024-01-19T00:51:37.791Z,98913.19
2024-01-19T00:56:01.093Z,98925.34
2024-01-19T01:00:25.273Z,98933.06
2024-01-19T01:04:48.985Z,98927.78
2024-01-19T01:09:14.547Z,98937.28
2024-01-19T01:13:37.856Z,98951.03
2024-01-19T01:18:02.491Z,98960.50
2024-01-19T01:22:25.912Z,98960.50
2024-01-19T01:26:51.646Z,98962.06
2024-01-19T01:31:15.005Z,98973.31
2024-01-19T01:35:39.078Z,98976.69
2024-01-19T01:40:02.754Z,98992.25
2024-01-19T01:44:28.307Z,99001.69
2024-01-19T01:48:52.231Z,99005.13
2024-01-19T01:53:19.923Z,99022.28
2024-01-19T01:57:45.125Z,99036.06
2024-01-19T02:02:10.275Z,99050.69
2024-01-19T02:06:33.768Z,99058.50
2024-01-19T02:10:58.494Z,99055.88
2024-01-19T02:15:23.313Z,99062.75
2024-01-19T02:19:48.743Z,99067.94
2024-01-19T02:24:16.137Z,99050.63
2024-01-19T02:28:40.428Z,99060.97
2024-01-19T02:33:05.096Z,99053.91
2024-01-19T02:37:29.018Z,99056.56
2024-01-19T02:41:53.764Z,99060.84
2024-01-19T02:46:19.916Z,99063.38
2024-01-19T02:50:43.634Z,99082.41
2024-01-19T02:55:08.743Z,99095.31
2024-01-19T02:59:33.451Z,99092.72
2024-01-19T03:03:57.254Z,99096.09
2024-01-19T03:08:21.992Z,99109.91
2024-01-19T03:12:46.284Z,99115.09
2024-01-19T03:17:10.945Z,99140.25
2024-01-19T03:21:35.091Z,99141.16
2024-01-19T03:25:58.365Z,99154.88
2024-01-19T03:30:22.825Z,99168.78
2024-01-19T03:34:47.485Z,99184.34
2024-01-19T03:39:11.348Z,99176.47
2024-01-19T03:43:35.023Z,99185.97
2024-01-19T03:47:59.202Z,99181.59
2024-01-19T03:52:24.056Z,99192.69
2024-01-19T03:56:48.204Z,99203.06
2024-01-19T04:01:11.579Z,99215.19
2024-01-19T04:05:35.903Z,99224.59
2024-01-19T04:10:00.939Z,99227.09
2024-01-19T04:14:25.149Z,99239.19
2024-01-19T04:18:48.702Z,99252.94
2024-01-19T04:23:13.382Z,99252.94
2024-01-19T04:27:38.101Z,99267.63
2024-01-19T04:32:02.305Z,99283.88
2024-01-19T04:36:25.615Z,99278.63
2024-01-19T04:40:50.086Z,99275.88
2024-01-19T04:45:14.978Z,99275.06
2024-01-19T04:49:39.202Z,99293.97
2024-01-19T04:54:02.923Z,99310.38
2024-01-19T04:58:26.849Z,99312.03
2024-01-19T05:02:51.934Z,99302.63
2024-01-19T05:07:16.135Z,99317.22
2024-01-19T05:11:40.058Z,99319.00
2024-01-19T05:16:04.453Z,99317.25
2024-01-19T05:20:29.414Z,99325.94
2024-01-19T05:24:53.671Z,99323.31
2024-01-19T05:29:17.141Z,99325.00
2024-01-19T05:33:41.852Z,99319.00
2024-01-19T05:38:06.779Z,99318.88
2024-01-19T05:42:30.903Z,99343.06
2024-01-19T05:46:54.219Z,99347.28
2024-01-19T05:51:18.552Z,99356.72
2024-01-19T05:55:44.851Z,99364.41
2024-01-19T06:00:10.228Z,99373.22
2024-01-19T06:04:38.318Z,99375.81
2024-01-19T06:09:02.509Z,99383.56
2024-01-19T06:13:27.195Z,99394.78
2024-01-19T06:17:51.038Z,99386.34
2024-01-19T06:22:14.377Z,99401.72
2024-01-19T06:26:39.248Z,99402.53
2024-01-19T06:31:06.330Z,99413.66
2024-01-19T06:35:30.496Z,99432.53
2024-01-19T06:39:53.978Z,99422.28
2024-01-19T06:44:19.669Z,99435.13
2024-01-19T06:48:45.124Z,99446.41
2024-01-19T06:53:09.263Z,99444.75
2024-01-19T06:57:32.877Z,99447.38
2024-01-19T07:01:56.604Z,99454.09
2024-01-19T07:06:21.412Z,99478.91
2024-01-19T07:10:45.645Z,99502.13
2024-01-19T07:15:09.855Z,99516.75
2024-01-19T07:19:34.012Z,99536.59
2024-01-19T07:23:58.730Z,99558.94
2024-01-19T07:28:22.912Z,99553.75
2024-01-19T07:32:55.862Z,99557.19
2024-01-19T07:37:28.879Z,99561.53
2024-01-19T07:41:53.576Z,99556.41
2024-01-19T07:46:17.600Z,99548.69
2024-01-19T07:50:40.930Z,99550.53
2024-01-19T07:55:06.649Z,99550.47
2024-01-19T07:59:31.711Z,99560.81
2024-01-19T08:03:55.546Z,99557.38
2024-01-19T08:08:18.900Z,99544.53
2024-01-19T08:12:43.327Z,99542.81
2024-01-19T08:17:09.202Z,99562.69
2024-01-19T08:21:33.039Z,99579.97
2024-01-19T08:25:56.450Z,99571.41
2024-01-19T08:30:20.901Z,99581.91
2024-01-19T08:34:46.197Z,99589.78
2024-01-19T08:39:10.845Z,99588.88
2024-01-19T08:43:34.152Z,99611.22
2024-01-19T08:47:58.893Z,99624.19
2024-01-19T08:52:23.637Z,99619.97
2024-01-19T08:56:55.316Z,99640.72
2024-01-19T09:01:22.070Z,99661.69
2024-01-19T09:05:47.198Z,99668.66
2024-01-19T09:10:12.271Z,99671.31
2024-01-19T09:14:36.147Z,99684.53
2024-01-19T09:18:59.806Z,99715.91
2024-01-19T09:23:24.117Z,99715.13
2024-01-19T09:27:48.830Z,99724.22
2024-01-19T09:32:17.779Z,99732.09
2024-01-19T09:36:41.405Z,99741.72
2024-01-19T09:41:17.132Z,99738.41
2024-01-19T09:45:43.402Z,99742.13
2024-01-19T09:50:08.761Z,99763.00
2024-01-19T09:54:35.775Z,99772.47
2024-01-19T09:59:02.153Z,99779.44
2024-01-19T10:03:30.737Z,99777.09
2024-01-19T10:07:57.190Z,99783.09
2024-01-19T10:12:21.339Z,99801.03
2024-01-19T10:16:45.760Z,99826.88
2024-01-19T10:21:10.486Z,99826.97
2024-01-19T10:25:36.533Z,99824.38
2024-01-19T10:30:10.983Z,99839.34
2024-01-19T10:34:35.332Z,99845.47
2024-01-19T10:39:18.195Z,99857.78
2024-01-19T10:43:42.360Z,99855.50
2024-01-19T10:48:06.270Z,99860.38
2024-01-19T10:52:32.032Z,99869.03
2024-01-19T10:57:05.462Z,99880.22
2024-01-19T11:01:29.793Z,99878.44
2024-01-19T11:05:55.388Z,99881.09
2024-01-19T11:10:20.599Z,99869.31
2024-01-19T11:14:47.589Z,99878.09
2024-01-19T11:19:12.504Z,99864.38
2024-01-19T11:23:39.135Z,99872.56
2024-01-19T11:28:19.123Z,99887.06
2024-01-19T11:32:43.997Z,99888.13
2024-01-19T11:37:07.778Z,99884.06
2024-01-19T11:41:49.363Z,99883.53
2024-01-19T11:46:13.691Z,99888.91
2024-01-19T11:50:46.353Z,99887.38
2024-01-19T11:55:42.439Z,99880.53
2024-01-19T12:00:07.059Z,99877.09
2024-01-19T12:04:31.659Z,99892.53
2024-01-19T12:09:05.486Z,99900.25
2024-01-19T12:13:30.476Z,99898.09
2024-01-19T12:17:53.818Z,99884.63
2024-01-19T12:22:18.087Z,99891.34
2024-01-19T12:26:51.415Z,99889.63
2024-01-19T12:31:23.658Z,99898.00
2024-01-19T12:35:48.096Z,99905.63
2024-01-19T12:40:16.331Z,99893.38
2024-01-19T12:44:41.287Z,99913.97
2024-01-19T12:49:06.432Z,99903.50
2024-01-19T12:53:32.065Z,99896.72
2024-01-19T12:57:55.901Z,99906.16
2024-01-19T13:02:20.667Z,99894.91
2024-01-19T13:06:45.647Z,99913.72
2024-01-19T13:11:10.066Z,99908.78
2024-01-19T13:15:34.627Z,99923.34
2024-01-19T13:19:59.546Z,99928.63
2024-01-19T13:24:25.385Z,99942.19
2024-01-19T13:28:49.433Z,99934.09
2024-01-19T13:33:13.831Z,99952.34
2024-01-19T13:37:38.908Z,99970.34
2024-01-19T13:42:03.392Z,99983.38
2024-01-19T13:46:26.829Z,100008.53
2024-01-19T13:50:50.702Z,100024.00
2024-01-19T13:55:16.492Z,100026.72
2024-01-19T13:59:41.254Z,100028.59
2024-01-19T14:04:06.534Z,100039.78
2024-01-19T14:08:30.683Z,100048.63
2024-01-19T14:12:55.797Z,100060.84
2024-01-19T14:17:20.508Z,100060.03
2024-01-19T14:21:42.139Z,100068.63
2024-01-19T14:26:04.806Z,100067.91
2024-01-19T14:30:47.766Z,100072.69
2024-01-19T14:35:20.611Z,100069.94
2024-01-19T14:39:59.109Z,100070.81
2024-01-19T14:44:31.689Z,100070.69
2024-01-19T14:48:56.552Z,100075.78
2024-01-19T14:53:21.365Z,100077.38
2024-01-19T14:57:44.800Z,100083.50
2024-01-19T15:02:09.781Z,100088.56
2024-01-19T15:06:34.718Z,100099.06
2024-01-19T15:10:58.639Z,100106.59
2024-01-19T15:15:22.362Z,100118.69
2024-01-19T15:19:46.103Z,100129.97
2024-01-19T15:24:10.800Z,100134.13
2024-01-19T15:28:35.067Z,100138.38
2024-01-19T15:32:58.468Z,100139.13
2024-01-19T15:37:22.776Z,100140.59
2024-01-19T15:41:47.423Z,100147.34
2024-01-19T15:46:11.691Z,100148.03
2024-01-19T15:50:35.085Z,100161.81
2024-01-19T15:54:59.019Z,100164.97
2024-01-19T15:59:23.889Z,100177.00
2024-01-19T16:03:49.597Z,100183.97
2024-01-19T16:08:14.398Z,100192.34
2024-01-19T16:12:38.651Z,100200.03
2024-01-19T16:17:05.943Z,100212.94
2024-01-19T16:21:30.248Z,100216.19
2024-01-19T16:25:53.576Z,100221.19
2024-01-19T16:30:17.671Z,100214.28
2024-01-19T16:34:42.593Z,100231.34
2024-01-19T16:39:06.346Z,100236.38
2024-01-19T16:43:29.695Z,100244.84
2024-01-19T16:47:57.776Z,100255.91
2024-01-19T16:52:22.519Z,100261.88
2024-01-19T16:56:46.677Z,100272.13
2024-01-19T17:01:10.046Z,100277.31
2024-01-19T17:05:34.364Z,100278.94
2024-01-19T17:09:59.063Z,100292.50
2024-01-19T17:14:23.221Z,100305.25
2024-01-19T17:18:46.931Z,100317.09
2024-01-19T17:23:11.480Z,100318.56
2024-01-19T17:27:36.281Z,100323.69
2024-01-19T17:32:00.426Z,100332.38
2024-01-19T17:36:24.099Z,100333.97
2024-01-19T17:40:48.519Z,100339.81
2024-01-19T17:45:21.503Z,100355.22
2024-01-19T17:49:47.163Z,100358.47
2024-01-19T17:54:10.542Z,100361.75
2024-01-19T17:58:34.971Z,100367.81
2024-01-19T18:03:01.327Z,100377.13
2024-01-19T18:07:25.590Z,100374.38
2024-01-19T18:11:51.146Z,100394.84
2024-01-19T18:16:17.174Z,100398.19
2024-01-19T18:20:44.750Z,100407.59
2024-01-19T18:25:09.732Z,100410.81
2024-01-19T18:29:34.295Z,100431.00
2024-01-19T18:33:58.519Z,100439.59
2024-01-19T18:38:24.360Z,100445.81
2024-01-19T18:42:48.804Z,100451.78
2024-01-19T18:47:12.315Z,100461.19
2024-01-19T18:51:36.366Z,100460.31
2024-01-19T18:56:01.371Z,100468.00
2024-01-19T19:00:25.735Z,100474.00
2024-01-19T19:04:49.340Z,100478.19
2024-01-19T19:09:14.958Z,100483.25
2024-01-19T19:13:39.912Z,100486.63
2024-01-19T19:18:04.148Z,100491.72
2024-01-19T19:22:27.505Z,100505.56
2024-01-19T19:26:51.602Z,100508.97
2024-01-19T19:31:16.340Z,100516.66
2024-01-19T19:35:41.120Z,100527.03
2024-01-19T19:40:04.733Z,100538.28
2024-01-19T19:44:28.855Z,100538.94
2024-01-19T19:48:56.176Z,100546.44
2024-01-19T19:53:21.485Z,100552.44
2024-01-19T19:57:45.059Z,100567.06
2024-01-19T20:02:09.795Z,100568.03
2024-01-19T20:06:34.575Z,100574.06
2024-01-19T20:10:58.703Z,100581.00
2024-01-19T20:15:25.212Z,100587.19
2024-01-19T20:19:51.549Z,100596.63
2024-01-19T20:24:16.613Z,100596.81
2024-01-19T20:28:41.421Z,100609.06
2024-01-19T20:33:06.445Z,100594.56
2024-01-19T20:37:32.491Z,100585.28
2024-01-19T20:41:58.870Z,100599.19
2024-01-19T20:46:23.186Z,100611.38
2024-01-19T20:50:46.602Z,100598.41
2024-01-19T20:55:11.376Z,100609.88
2024-01-19T20:59:38.896Z,100609.88
2024-01-19T21:04:03.996Z,100610.06
2024-01-19T21:08:28.704Z,100611.03
2024-01-19T21:12:52.871Z,100615.44
2024-01-19T21:17:18.054Z,100617.22
2024-01-19T21:21:41.972Z,100614.44
2024-01-19T21:26:05.923Z,100619.63
2024-01-19T21:30:30.058Z,100625.78
2024-01-19T21:34:55.195Z,100627.41
2024-01-19T21:39:19.283Z,100637.59
2024-01-19T21:43:42.963Z,100641.00
2024-01-19T21:48:08.027Z,100652.97
2024-01-19T21:52:33.370Z,100653.81
2024-01-19T21:56:57.672Z,100663.34
2024-01-19T22:01:21.366Z,100672.81
2024-01-19T22:05:47.157Z,100677.13
2024-01-19T22:10:12.273Z,100686.56
2024-01-19T22:14:36.454Z,100696.16
2024-01-19T22:18:59.995Z,100706.53
2024-01-19T22:23:28.202Z,100720.22
2024-01-19T22:27:53.049Z,100734.06
2024-01-19T22:32:17.187Z,100739.31
2024-01-19T22:36:40.630Z,100747.25
2024-01-19T22:41:04.742Z,100749.84
2024-01-19T22:45:29.580Z,100756.03
2024-01-19T22:49:55.105Z,100760.59
2024-01-19T22:54:18.815Z,100762.38
2024-01-19T22:58:43.771Z,100766.84
2024-01-19T23:03:09.314Z,100760.75
2024-01-19T23:07:33.422Z,100764.16
2024-01-19T23:11:57.161Z,100765.94
2024-01-19T23:16:23.987Z,100763.34
2024-01-19T23:20:49.988Z,100766.66
2024-01-19T23:30:37.560Z,100769.16
2024-01-19T23:35:04.083Z,100763.81
2024-01-19T23:39:29.173Z,100763.00
2024-01-19T23:43:52.597Z,100769.78
2024-01-19T23:48:16.584Z,100767.00
2024-01-19T23:52:39.996Z,100772.19
2024-01-19T23:57:05.587Z,100765.94
